22MI weather

Munson Medical Center Heliport
Traverse City, Michigan, United States

Public forecast

Using degrees Fahrenheit for public forecast. Weather courtesy of forecast.io.

Closest aviation weather report (METAR) to Munson Medical Center Heliport

Closest report is Cherry Capital Airport, 2.9 nm (5.3 km) ESE. Retrieved 2020/04/05 20:53 UTC (44 minutes ago):

KTVC 052053Z 02006KT 10SM CLR 07/M02 A3017 RMK AO2 SLP224 T00671017 56013

Closest aviation forecast (TAF) to Munson Medical Center Heliport

Closest forecast is Cherry Capital Airport, 2.9 nm (5.3 km) ESE. Retrieved 2020/04/05 18:22 UTC (3 hours ago):

TAF KTVC 051720Z 0518/0618 02007KT P6SM SKC FM060100 VRB03KT P6SM SKC FM061100 VRB03KT P6SM BKN200 FM061600 23006KT P6SM BKN140